Salt Wells, Nevada
Current Conditions -  °F | °C
As of 2:56 PM on Wednesday 22 Oct 2014 (Local Time) from KNFL Reporting Station
Overcast Overcast  
Wind Chill: 21°   Ceiling: 22000
Heat Index: 21°   Visibility: 10mi
Dew Point: -8°   Wind: 6mph
Humidity: 14%   Direction: 30°NNE
Pressure: 30.05"   Gusts: NA
Location:  39.5809°N, 118.333°W
Report Text: KNFL 222156Z 03005KT 10SM SCT160 BKN220 OVC300 21/M08 A3005 RMK AO2 SLP146 T02061078
Loading
Personal Weather Stations






























Interactive Weather Map
Tropical Storm Tracking
New forecast layout! Learn more

10-Day Weather Forecast

Advertisements
Track Severe Weather on mobile